Time;durP1;ratioP1;P1;durP2;ratioP2;P2;SDS_P1;SDS_P2;PMS_P1;PMS_P2;Temp;Humidity;BMP_temperature;BMP_pressure;BME280_temperature;BME280_humidity;BME280_pressure;Samples;Min_cycle;Max_cycle;Signal;HPM_P1;HPM_P2
2023/11/16 00:00:41;;;;;;;1.20;0.40;;;9.40;92.10;;;;;;4756648;30;20501;-75
2023/11/16 00:03:07;;;;;;;1.85;0.65;;;9.50;92.10;;;;;;4787375;30;20126;-75
2023/11/16 00:05:35;;;;;;;0.98;0.50;;;9.50;92.10;;;;;;4786477;30;20073;-77
2023/11/16 00:08:06;;;;;;;1.20;0.73;;;9.50;92.10;;;;;;4771538;30;20040;-76
2023/11/16 00:10:34;;;;;;;1.30;0.40;;;9.50;92.00;;;;;;4786734;30;20044;-75
2023/11/16 00:13:00;;;;;;;1.40;0.52;;;9.50;92.00;;;;;;4770285;30;20054;-74
2023/11/16 00:15:26;;;;;;;2.50;0.75;;;9.50;92.00;;;;;;4770997;30;20039;-75
2023/11/16 00:17:53;;;;;;;0.45;0.45;;;9.50;92.00;;;;;;4771012;30;20399;-76
2023/11/16 00:20:19;;;;;;;1.10;0.50;;;9.50;92.00;;;;;;4787718;30;20043;-76
2023/11/16 00:22:44;;;;;;;0.93;0.57;;;9.50;92.00;;;;;;4787204;30;20444;-76
2023/11/16 00:25:12;;;;;;;1.40;0.60;;;9.50;92.00;;;;;;4771087;30;20514;-76
2023/11/16 00:27:38;;;;;;;0.93;0.50;;;9.50;92.00;;;;;;4787078;30;20708;-76
2023/11/16 00:30:05;;;;;;;2.30;0.50;;;9.50;92.30;;;;;;4787007;30;20035;-76
2023/11/16 00:32:32;;;;;;;1.65;0.65;;;9.50;91.90;;;;;;4786892;30;20043;-75
2023/11/16 00:34:58;;;;;;;1.60;0.50;;;9.50;92.20;;;;;;4786317;30;20048;-76
2023/11/16 00:37:24;;;;;;;1.40;0.50;;;9.50;91.90;;;;;;4786898;30;20055;-76
2023/11/16 00:39:50;;;;;;;1.15;0.60;;;9.60;92.00;;;;;;4770441;30;20402;-76
2023/11/16 00:42:17;;;;;;;2.95;0.65;;;9.50;91.90;;;;;;4786571;30;20395;-76
2023/11/16 00:44:43;;;;;;;1.00;0.45;;;9.50;91.90;;;;;;4770062;30;20040;-76
2023/11/16 00:47:08;;;;;;;0.80;0.35;;;9.50;91.90;;;;;;4755316;30;20054;-76
2023/11/16 00:49:34;;;;;;;1.05;0.50;;;9.50;91.90;;;;;;4770335;30;20399;-76
2023/11/16 00:52:00;;;;;;;0.35;0.30;;;9.50;91.90;;;;;;4755161;30;20565;-76
2023/11/16 00:54:26;;;;;;;0.50;0.38;;;9.50;91.90;;;;;;4770305;30;20051;-76
2023/11/16 00:56:51;;;;;;;0.90;0.40;;;9.50;91.90;;;;;;4787160;30;20046;-76
2023/11/16 00:59:20;;;;;;;1.17;0.82;;;9.50;91.90;;;;;;4770401;30;20049;-77
2023/11/16 01:01:46;;;;;;;0.40;0.40;;;9.40;91.90;;;;;;4771283;30;20048;-76
2023/11/16 01:04:13;;;;;;;1.33;0.40;;;9.50;91.90;;;;;;4786226;30;20380;-76
2023/11/16 01:06:39;;;;;;;1.65;0.57;;;9.50;91.90;;;;;;4769978;30;20042;-77
2023/11/16 01:09:07;;;;;;;1.25;0.40;;;9.40;91.90;;;;;;4769931;30;20056;-76
2023/11/16 01:11:36;;;;;;;2.13;0.52;;;9.50;91.90;;;;;;4769755;30;20145;-76
2023/11/16 01:14:02;;;;;;;2.00;0.43;;;9.40;91.90;;;;;;4787072;30;20076;-76
2023/11/16 01:16:40;;;;;;;0.43;0.40;;;9.40;91.90;;;;;;4786654;30;20075;-76
2023/11/16 01:19:08;;;;;;;1.13;0.55;;;9.40;91.90;;;;;;4774167;30;20138;-76
2023/11/16 01:21:41;;;;;;;0.70;0.50;;;9.40;92.00;;;;;;4789181;30;20047;-76
2023/11/16 01:24:08;;;;;;;0.63;0.38;;;9.30;92.00;;;;;;4759843;30;20037;-77
2023/11/16 01:26:35;;;;;;;0.40;0.38;;;9.30;92.10;;;;;;4789708;30;20436;-77
2023/11/16 01:29:06;;;;;;;1.15;0.40;;;9.20;92.10;;;;;;4758328;30;20075;-76
2023/11/16 01:31:32;;;;;;;0.95;0.50;;;9.20;92.20;;;;;;4788526;30;20039;-76
2023/11/16 01:33:57;;;;;;;0.73;0.50;;;9.20;92.20;;;;;;4788988;30;20100;-76
2023/11/16 01:36:24;;;;;;;0.73;0.40;;;9.20;92.30;;;;;;4772948;30;20078;-76
2023/11/16 01:38:51;;;;;;;0.30;0.30;;;9.20;92.30;;;;;;4772640;30;20134;-76
2023/11/16 01:41:18;;;;;;;0.65;0.50;;;9.20;92.30;;;;;;4772241;30;20054;-76
2023/11/16 01:43:45;;;;;;;1.42;0.40;;;9.10;92.30;;;;;;4771744;30;20043;-76
2023/11/16 01:46:12;;;;;;;1.85;0.40;;;9.10;92.30;;;;;;4789062;30;20034;-78
2023/11/16 01:48:42;;;;;;;0.65;0.50;;;9.10;92.40;;;;;;4788495;30;20047;-76
2023/11/16 01:51:11;;;;;;;0.63;0.60;;;9.10;92.40;;;;;;4771300;30;20047;-76
2023/11/16 01:53:41;;;;;;;0.95;0.40;;;9.10;92.40;;;;;;4788783;30;20051;-76
2023/11/16 01:56:08;;;;;;;0.43;0.30;;;9.10;92.40;;;;;;4772310;30;20051;-76
2023/11/16 01:58:34;;;;;;;1.92;0.40;;;9.00;92.40;;;;;;4772132;30;20473;-76
2023/11/16 02:01:01;;;;;;;0.60;0.30;;;9.10;92.50;;;;;;4757185;30;20139;-76
2023/11/16 02:03:27;;;;;;;0.40;0.35;;;9.10;92.50;;;;;;4772044;30;20433;-76
2023/11/16 02:05:55;;;;;;;1.42;0.43;;;9.00;92.50;;;;;;4788364;30;20043;-76
2023/11/16 02:08:22;;;;;;;0.50;0.30;;;9.10;92.50;;;;;;4772270;30;20067;-76
2023/11/16 02:10:47;;;;;;;0.65;0.40;;;9.00;92.50;;;;;;4788656;30;20088;-76
2023/11/16 02:13:18;;;;;;;0.30;0.30;;;9.10;92.50;;;;;;4757277;30;20126;-76
2023/11/16 02:15:45;;;;;;;0.77;0.40;;;9.00;92.50;;;;;;4788116;30;20046;-76
2023/11/16 02:18:14;;;;;;;0.57;0.43;;;9.00;92.50;;;;;;4788463;30;20054;-76
2023/11/16 02:20:41;;;;;;;0.90;0.45;;;9.00;92.50;;;;;;4788007;30;20051;-75
2023/11/16 02:23:07;;;;;;;0.60;0.30;;;9.00;92.50;;;;;;4788093;30;20458;-75
2023/11/16 02:25:49;;;;;;;0.30;0.30;;;9.00;92.50;;;;;;4771856;30;20122;-75
2023/11/16 02:28:17;;;;;;;0.95;0.50;;;9.00;92.60;;;;;;4756936;30;20062;-75
2023/11/16 02:30:43;;;;;;;0.77;0.35;;;9.00;92.60;;;;;;4771739;30;20472;-77
2023/11/16 02:33:09;;;;;;;0.45;0.38;;;9.00;92.60;;;;;;4771250;30;20565;-76
2023/11/16 02:35:35;;;;;;;2.65;0.43;;;9.00;92.90;;;;;;4772338;30;20126;-76
2023/11/16 02:38:03;;;;;;;0.22;0.22;;;9.00;92.60;;;;;;4788187;29;20134;-76
2023/11/16 02:40:28;;;;;;;0.28;0.28;;;9.00;92.60;;;;;;4771476;30;20138;-75
2023/11/16 02:42:55;;;;;;;0.95;0.50;;;9.00;92.60;;;;;;4771965;30;20119;-76
2023/11/16 02:45:23;;;;;;;0.90;0.38;;;9.00;92.60;;;;;;4787989;30;20039;-76
2023/11/16 02:47:50;;;;;;;0.63;0.43;;;9.10;92.70;;;;;;4787910;30;20071;-75
2023/11/16 02:50:17;;;;;;;0.80;0.30;;;9.00;92.70;;;;;;4787596;30;20122;-75
2023/11/16 02:52:43;;;;;;;0.38;0.38;;;9.00;92.90;;;;;;4756442;30;20040;-76
2023/11/16 02:55:09;;;;;;;1.15;0.38;;;9.00;92.70;;;;;;4787617;30;20043;-75
2023/11/16 02:57:37;;;;;;;0.70;0.35;;;9.00;92.70;;;;;;4787582;30;20408;-76
2023/11/16 03:00:03;;;;;;;0.35;0.35;;;9.00;92.70;;;;;;4787181;30;20039;-76
2023/11/16 03:02:30;;;;;;;0.47;0.30;;;9.00;92.70;;;;;;4787379;30;20051;-76
2023/11/16 03:04:56;;;;;;;0.82;0.47;;;9.00;92.70;;;;;;4787666;30;20039;-75
2023/11/16 03:07:22;;;;;;;0.30;0.30;;;9.00;92.80;;;;;;4787282;30;20475;-76
2023/11/16 03:09:48;;;;;;;0.28;0.25;;;9.00;92.80;;;;;;4787470;30;20039;-76
2023/11/16 03:12:14;;;;;;;0.20;0.20;;;9.00;92.80;;;;;;4787341;30;20047;-76
2023/11/16 03:14:40;;;;;;;0.30;0.30;;;9.00;92.80;;;;;;4770956;30;20130;-76
2023/11/16 03:17:06;;;;;;;0.25;0.20;;;9.00;92.80;;;;;;4787239;30;20130;-76
2023/11/16 03:19:34;;;;;;;0.45;0.30;;;9.00;92.80;;;;;;4787571;30;20055;-76
2023/11/16 03:22:02;;;;;;;1.13;0.40;;;9.10;92.80;;;;;;4787092;30;20043;-75
2023/11/16 03:24:27;;;;;;;0.35;0.35;;;9.00;92.80;;;;;;4771495;30;20483;-76
2023/11/16 03:26:55;;;;;;;0.95;0.40;;;8.90;92.80;;;;;;4770818;30;20039;-76
2023/11/16 03:29:21;;;;;;;0.30;0.30;;;8.90;92.90;;;;;;4771129;30;20040;-76
2023/11/16 03:31:47;;;;;;;0.50;0.50;;;8.90;93.10;;;;;;4771273;30;20184;-75
2023/11/16 03:34:13;;;;;;;0.40;0.40;;;8.90;92.90;;;;;;4770866;30;20043;-76
2023/11/16 03:36:39;;;;;;;1.25;0.50;;;8.90;92.90;;;;;;4770506;30;20070;-76
2023/11/16 03:39:05;;;;;;;1.05;0.50;;;9.00;92.90;;;;;;4787061;29;20138;-75
2023/11/16 03:41:32;;;;;;;1.27;0.80;;;9.00;92.90;;;;;;4786422;30;20039;-76
2023/11/16 03:43:57;;;;;;;0.50;0.40;;;8.80;92.80;;;;;;4786435;30;20051;-76
2023/11/16 03:46:23;;;;;;;1.00;0.60;;;8.90;92.90;;;;;;4770755;30;20035;-75
2023/11/16 03:48:49;;;;;;;0.57;0.47;;;8.80;92.90;;;;;;4786565;30;20406;-76
2023/11/16 03:51:16;;;;;;;0.43;0.43;;;8.80;92.90;;;;;;4755830;30;20096;-75
2023/11/16 03:53:43;;;;;;;0.43;0.40;;;8.80;92.90;;;;;;4770604;30;20043;-75
2023/11/16 03:56:08;;;;;;;1.23;0.60;;;8.80;93.00;;;;;;4755797;30;20477;-76
2023/11/16 03:58:34;;;;;;;0.40;0.40;;;8.80;93.00;;;;;;4770872;30;20150;-75
2023/11/16 04:01:00;;;;;;;0.25;0.25;;;8.70;93.00;;;;;;4787066;30;20063;-76
2023/11/16 04:03:25;;;;;;;0.60;0.50;;;8.70;93.00;;;;;;4786714;30;20120;-75
2023/11/16 04:05:51;;;;;;;0.88;0.38;;;8.70;93.00;;;;;;4786449;30;20054;-75
2023/11/16 04:08:17;;;;;;;0.50;0.38;;;8.70;93.10;;;;;;4770605;30;20035;-76
2023/11/16 04:10:45;;;;;;;0.35;0.30;;;8.70;93.00;;;;;;4770190;30;20138;-76
2023/11/16 04:13:11;;;;;;;0.82;0.40;;;8.70;93.00;;;;;;4787056;30;20039;-75
2023/11/16 04:15:38;;;;;;;0.43;0.40;;;8.60;93.00;;;;;;4786748;30;20039;-76
2023/11/16 04:18:05;;;;;;;1.00;0.50;;;8.60;93.10;;;;;;4785942;30;20043;-76
2023/11/16 04:20:31;;;;;;;0.80;0.55;;;8.50;93.00;;;;;;4770297;30;20130;-75
2023/11/16 04:22:56;;;;;;;1.05;0.55;;;8.60;93.10;;;;;;4755453;30;20173;-76
2023/11/16 04:25:22;;;;;;;0.70;0.40;;;8.70;93.10;;;;;;4786113;30;20514;-76
2023/11/16 04:27:49;;;;;;;0.50;0.40;;;8.50;93.10;;;;;;4786259;30;20462;-76
2023/11/16 04:30:16;;;;;;;0.95;0.60;;;8.50;93.10;;;;;;4786766;30;20039;-75
2023/11/16 04:32:45;;;;;;;0.77;0.40;;;8.50;93.10;;;;;;4786101;30;20402;-76
2023/11/16 04:35:14;;;;;;;0.63;0.40;;;8.50;93.10;;;;;;4786000;30;20501;-76
2023/11/16 04:37:40;;;;;;;0.63;0.52;;;8.50;93.10;;;;;;4786116;30;20112;-75
2023/11/16 04:40:08;;;;;;;0.45;0.40;;;8.50;93.20;;;;;;4769910;30;20051;-75
2023/11/16 04:42:34;;;;;;;0.38;0.38;;;8.40;93.10;;;;;;4770010;30;20104;-75
2023/11/16 04:45:01;;;;;;;0.55;0.40;;;8.40;93.10;;;;;;4769881;30;20047;-76
2023/11/16 04:47:27;;;;;;;0.50;0.50;;;8.40;93.10;;;;;;4769685;30;20122;-75
2023/11/16 04:49:52;;;;;;;0.60;0.50;;;8.40;93.20;;;;;;4754903;30;20478;-75
2023/11/16 04:52:20;;;;;;;0.73;0.47;;;8.40;93.20;;;;;;4771267;30;20046;-75
2023/11/16 04:54:45;;;;;;;0.40;0.40;;;8.40;93.20;;;;;;4789044;30;20057;-76
2023/11/16 04:57:11;;;;;;;0.75;0.60;;;8.30;93.10;;;;;;4789528;30;20047;-76
2023/11/16 04:59:37;;;;;;;2.60;0.60;;;8.40;93.20;;;;;;4789018;30;20043;-76
2023/11/16 05:02:02;;;;;;;0.70;0.43;;;8.40;93.20;;;;;;4773055;30;20078;-75
2023/11/16 05:04:28;;;;;;;0.60;0.40;;;8.30;93.20;;;;;;4773665;30;20046;-76
2023/11/16 05:06:54;;;;;;;0.40;0.40;;;8.30;93.20;;;;;;4789051;30;20035;-75
2023/11/16 05:09:20;;;;;;;0.80;0.60;;;8.30;93.20;;;;;;4789197;30;20042;-76
2023/11/16 05:11:45;;;;;;;0.57;0.52;;;8.30;93.20;;;;;;4789601;30;20483;-75
2023/11/16 05:14:11;;;;;;;1.13;0.70;;;8.30;93.20;;;;;;4772819;30;20062;-76
2023/11/16 05:16:37;;;;;;;1.15;0.55;;;8.30;93.20;;;;;;4772898;30;20054;-76
2023/11/16 05:19:02;;;;;;;0.85;0.55;;;8.20;93.20;;;;;;4772809;30;20048;-76
2023/11/16 05:21:28;;;;;;;0.50;0.50;;;8.30;93.20;;;;;;4772970;30;20051;-75
2023/11/16 05:23:54;;;;;;;0.85;0.60;;;8.30;93.20;;;;;;4757700;30;20057;-76
2023/11/16 05:26:20;;;;;;;0.90;0.52;;;8.30;93.20;;;;;;4772713;30;20043;-76
2023/11/16 05:28:46;;;;;;;0.70;0.50;;;8.30;93.20;;;;;;4758052;30;20047;-75
2023/11/16 05:31:11;;;;;;;0.68;0.30;;;8.20;93.20;;;;;;4772645;30;20138;-76
2023/11/16 05:33:38;;;;;;;0.30;0.30;;;8.30;93.20;;;;;;4772884;30;20041;-76
2023/11/16 05:36:06;;;;;;;0.38;0.30;;;8.20;93.10;;;;;;4789068;30;20495;-76
2023/11/16 05:38:31;;;;;;;0.90;0.40;;;8.20;93.20;;;;;;4788556;30;20082;-76
2023/11/16 05:40:57;;;;;;;0.30;0.30;;;8.10;93.10;;;;;;4773141;30;20067;-75
2023/11/16 05:43:23;;;;;;;0.40;0.40;;;8.20;93.20;;;;;;4757770;30;20479;-76
2023/11/16 05:45:48;;;;;;;0.50;0.40;;;8.10;93.20;;;;;;4757896;30;20119;-77
2023/11/16 05:48:15;;;;;;;0.43;0.43;;;8.10;93.20;;;;;;4772965;30;20091;-76
2023/11/16 05:50:42;;;;;;;0.80;0.50;;;8.00;93.20;;;;;;4773102;30;20039;-75
2023/11/16 05:53:09;;;;;;;0.77;0.40;;;8.00;93.30;;;;;;4773244;30;20071;-75
2023/11/16 05:55:36;;;;;;;0.40;0.40;;;8.00;93.30;;;;;;4788641;30;20044;-76
2023/11/16 05:58:02;;;;;;;0.70;0.40;;;8.00;93.30;;;;;;4772436;30;20096;-75
2023/11/16 06:00:28;;;;;;;0.40;0.40;;;8.00;93.30;;;;;;4772239;30;20453;-75
2023/11/16 06:02:54;;;;;;;0.40;0.40;;;8.00;93.30;;;;;;4771734;30;20091;-75
2023/11/16 06:05:19;;;;;;;1.13;0.60;;;7.90;93.30;;;;;;4773289;30;20391;-77
2023/11/16 06:07:45;;;;;;;0.70;0.40;;;7.90;93.30;;;;;;4773293;30;20096;-77
2023/11/16 06:10:14;;;;;;;1.08;0.60;;;7.90;93.30;;;;;;4773668;30;20044;-77
2023/11/16 06:12:40;;;;;;;0.68;0.45;;;7.80;93.30;;;;;;4773024;30;20406;-78
2023/11/16 06:15:07;;;;;;;0.98;0.57;;;7.80;93.30;;;;;;4758772;30;20072;-78
2023/11/16 06:17:33;;;;;;;0.90;0.40;;;7.70;93.30;;;;;;4773426;30;20039;-77
2023/11/16 06:19:59;;;;;;;0.25;0.25;;;7.70;93.40;;;;;;4773461;30;20093;-77
2023/11/16 06:22:24;;;;;;;0.55;0.40;;;7.70;93.40;;;;;;4789636;30;20047;-80
2023/11/16 06:24:50;;;;;;;0.38;0.38;;;7.70;93.40;;;;;;4788785;30;20043;-77
2023/11/16 06:27:16;;;;;;;0.50;0.40;;;7.70;93.40;;;;;;4772084;30;20092;-77
2023/11/16 06:29:42;;;;;;;0.60;0.50;;;7.70;93.40;;;;;;4773106;30;20042;-77
2023/11/16 06:32:08;;;;;;;0.77;0.50;;;7.70;93.40;;;;;;4772295;30;20066;-77
2023/11/16 06:34:34;;;;;;;1.58;0.50;;;7.70;93.40;;;;;;4788482;30;20424;-76
2023/11/16 06:37:00;;;;;;;0.82;0.57;;;7.70;93.40;;;;;;4787785;30;20047;-76
2023/11/16 06:39:26;;;;;;;0.65;0.50;;;7.70;93.40;;;;;;4772585;30;20113;-75
2023/11/16 06:41:52;;;;;;;0.85;0.55;;;7.70;93.40;;;;;;4771811;30;20051;-76
2023/11/16 06:44:19;;;;;;;0.75;0.70;;;7.60;93.30;;;;;;4788254;30;20122;-76
2023/11/16 06:46:45;;;;;;;1.17;0.47;;;7.60;93.40;;;;;;4772396;30;20426;-76
2023/11/16 06:49:11;;;;;;;0.70;0.40;;;7.60;93.40;;;;;;4787663;30;20047;-76
2023/11/16 06:51:37;;;;;;;0.35;0.35;;;7.50;93.40;;;;;;4772172;30;20904;-76
2023/11/16 06:54:05;;;;;;;0.45;0.45;;;7.50;93.40;;;;;;4772107;30;20069;-76
2023/11/16 06:56:33;;;;;;;0.40;0.40;;;7.40;93.40;;;;;;4787973;30;20491;-76
2023/11/16 06:59:00;;;;;;;0.68;0.50;;;7.40;93.40;;;;;;4772256;30;20040;-76
2023/11/16 07:01:32;;;;;;;0.65;0.50;;;7.40;93.50;;;;;;4771598;30;20050;-75
2023/11/16 07:03:58;;;;;;;0.40;0.40;;;7.30;93.80;;;;;;4771595;30;20061;-75
2023/11/16 07:06:24;;;;;;;0.85;0.32;;;7.30;93.50;;;;;;4787882;30;20043;-75
2023/11/16 07:08:50;;;;;;;0.77;0.60;;;7.20;93.50;;;;;;4771443;30;20131;-73
2023/11/16 07:11:16;;;;;;;0.98;0.50;;;7.20;93.50;;;;;;4787373;30;20047;-76
2023/11/16 07:13:41;;;;;;;0.60;0.50;;;7.20;93.50;;;;;;4787439;30;20372;-76
2023/11/16 07:16:08;;;;;;;0.43;0.40;;;7.10;93.50;;;;;;4786973;30;20043;-76
2023/11/16 07:18:34;;;;;;;0.82;0.50;;;7.20;93.50;;;;;;4787347;30;20043;-76
2023/11/16 07:21:04;;;;;;;1.08;0.70;;;7.10;93.50;;;;;;4771133;30;20127;-76
2023/11/16 07:23:30;;;;;;;0.77;0.50;;;7.20;93.50;;;;;;4787279;30;20482;-76
2023/11/16 07:26:00;;;;;;;1.13;0.55;;;7.10;93.50;;;;;;4786980;30;20054;-76
2023/11/16 07:28:26;;;;;;;0.30;0.30;;;7.10;93.50;;;;;;4772157;30;20039;-76
2023/11/16 07:30:52;;;;;;;0.88;0.70;;;7.10;93.50;;;;;;4787537;30;20128;-76
2023/11/16 07:33:19;;;;;;;0.77;0.70;;;7.00;93.50;;;;;;4787430;30;20043;-76
2023/11/16 07:35:46;;;;;;;1.08;0.68;;;7.00;93.50;;;;;;4787082;30;20046;-76
2023/11/16 07:38:12;;;;;;;0.60;0.60;;;7.00;93.50;;;;;;4771373;30;20078;-75
2023/11/16 07:40:39;;;;;;;0.50;0.50;;;7.00;93.50;;;;;;4787160;30;20557;-76
2023/11/16 07:43:05;;;;;;;0.57;0.55;;;7.00;93.50;;;;;;4770844;30;20040;-76
2023/11/16 07:45:31;;;;;;;0.70;0.70;;;7.00;93.50;;;;;;4770984;30;20042;-76
2023/11/16 07:47:59;;;;;;;0.60;0.50;;;6.90;93.50;;;;;;4770930;30;20039;-76
2023/11/16 07:50:26;;;;;;;0.88;0.50;;;6.90;93.50;;;;;;4771440;30;20050;-75
2023/11/16 07:52:53;;;;;;;0.93;0.55;;;7.00;93.50;;;;;;4770834;30;20054;-77
2023/11/16 07:55:21;;;;;;;0.77;0.50;;;7.10;93.50;;;;;;4786815;30;20043;-75
2023/11/16 07:57:49;;;;;;;0.75;0.57;;;7.10;93.50;;;;;;4786904;30;20051;-76
2023/11/16 08:00:22;;;;;;;0.85;0.50;;;7.10;93.40;;;;;;4771182;30;20042;-75
2023/11/16 08:05:26;;;;;;;1.05;0.43;;;7.20;93.40;;;;;;4786682;30;20036;-76
2023/11/16 08:07:54;;;;;;;0.95;0.60;;;7.20;93.40;;;;;;4786755;30;20043;-76
2023/11/16 08:10:23;;;;;;;0.50;0.40;;;7.20;93.30;;;;;;4770852;30;20395;-76
2023/11/16 08:12:53;;;;;;;0.50;0.50;;;7.20;93.30;;;;;;4786765;30;20088;-75
2023/11/16 08:15:24;;;;;;;0.80;0.70;;;7.30;93.60;;;;;;4786937;30;20472;-76
2023/11/16 08:17:52;;;;;;;0.98;0.57;;;7.30;93.30;;;;;;4770710;30;20134;-76
2023/11/16 08:20:23;;;;;;;0.60;0.47;;;7.30;93.30;;;;;;4770473;30;20039;-76
2023/11/16 08:22:53;;;;;;;0.68;0.60;;;7.40;93.30;;;;;;4770421;30;20050;-76
2023/11/16 08:25:22;;;;;;;0.43;0.43;;;7.40;93.20;;;;;;4786884;30;20397;-76
2023/11/16 08:27:49;;;;;;;0.40;0.40;;;7.40;93.20;;;;;;4755767;30;20050;-75
2023/11/16 08:30:16;;;;;;;0.65;0.57;;;7.50;93.20;;;;;;4786907;30;20047;-76
2023/11/16 08:32:42;;;;;;;1.27;0.70;;;7.50;93.10;;;;;;4770180;30;20043;-76
2023/11/16 08:35:09;;;;;;;1.10;0.70;;;7.60;93.10;;;;;;4770441;30;20048;-76
2023/11/16 08:37:34;;;;;;;1.40;0.70;;;7.60;93.10;;;;;;4770176;30;20087;-76
2023/11/16 08:40:00;;;;;;;0.98;0.70;;;7.60;93.10;;;;;;4770336;30;20071;-76
2023/11/16 08:42:26;;;;;;;1.27;0.73;;;7.60;93.10;;;;;;4770222;30;20130;-77
2023/11/16 08:44:52;;;;;;;1.95;0.82;;;7.70;93.10;;;;;;4770104;30;20135;-76
2023/11/16 08:47:18;;;;;;;1.17;0.77;;;7.70;93.00;;;;;;4786332;30;20487;-76
2023/11/16 08:49:47;;;;;;;1.20;0.70;;;7.70;93.00;;;;;;4770687;30;20126;-75
2023/11/16 08:52:14;;;;;;;1.15;0.70;;;7.70;93.00;;;;;;4770179;30;20094;-76
2023/11/16 08:54:42;;;;;;;0.60;0.60;;;7.70;93.00;;;;;;4770101;30;20483;-76
2023/11/16 08:57:08;;;;;;;0.43;0.43;;;7.80;93.00;;;;;;4786180;30;20058;-76
2023/11/16 08:59:35;;;;;;;0.70;0.63;;;7.80;93.00;;;;;;4786032;30;20109;-76
2023/11/16 09:02:02;;;;;;;0.75;0.60;;;7.90;93.00;;;;;;4755401;30;20042;-76
2023/11/16 09:04:28;;;;;;;1.50;0.85;;;8.00;93.00;;;;;;4786558;30;20480;-76
2023/11/16 09:06:54;;;;;;;1.13;0.80;;;8.00;93.00;;;;;;4770009;30;20431;-75
2023/11/16 09:12:12;;;;;;;1.48;0.80;;;8.00;92.90;;;;;;4759759;30;20531;-76
2023/11/16 09:14:40;;;;;;;0.70;0.70;;;8.10;92.90;;;;;;4757139;30;20047;-76
2023/11/16 09:17:16;;;;;;;1.25;0.90;;;8.10;93.00;;;;;;4786329;30;20044;-76
2023/11/16 09:19:43;;;;;;;0.80;0.65;;;8.10;92.90;;;;;;4770177;30;20059;-76
2023/11/16 09:22:09;;;;;;;1.55;0.75;;;8.10;92.90;;;;;;4785794;30;20039;-76
2023/11/16 09:24:37;;;;;;;1.45;0.82;;;8.10;92.90;;;;;;4786132;30;20376;-76
2023/11/16 09:27:04;;;;;;;0.82;0.75;;;8.10;92.90;;;;;;4769516;30;20043;-76
2023/11/16 09:29:30;;;;;;;0.90;0.73;;;8.20;92.90;;;;;;4785514;30;20135;-76
2023/11/16 09:31:56;;;;;;;1.33;1.00;;;8.20;92.90;;;;;;4786380;30;20044;-76
2023/11/16 09:34:22;;;;;;;1.02;0.85;;;8.30;92.90;;;;;;4769560;30;20372;-76
2023/11/16 09:36:50;;;;;;;0.80;0.70;;;8.30;92.90;;;;;;4755435;30;20043;-76
2023/11/16 09:39:16;;;;;;;1.80;0.90;;;8.40;92.90;;;;;;4772724;30;20138;-76
2023/11/16 09:41:49;;;;;;;1.30;0.77;;;8.40;92.90;;;;;;4772784;30;20073;-76
2023/11/16 09:44:17;;;;;;;1.67;0.90;;;8.50;92.90;;;;;;4788613;30;20391;-76
2023/11/16 09:46:46;;;;;;;1.52;0.95;;;8.50;92.80;;;;;;4772305;30;20044;-76
2023/11/16 09:49:16;;;;;;;1.13;0.85;;;8.50;92.80;;;;;;4788907;30;20446;-76
2023/11/16 09:52:07;;;;;;;1.08;0.73;;;8.50;92.80;;;;;;4718547;30;20048;-76
2023/11/16 09:54:48;;;;;;;1.58;1.00;;;8.50;92.80;;;;;;4718559;30;20429;-76
2023/11/16 09:57:19;;;;;;;2.03;1.00;;;8.50;92.80;;;;;;4717878;30;20056;-77
2023/11/16 09:59:45;;;;;;;1.40;1.10;;;8.50;92.80;;;;;;4718903;30;20536;-77
2023/11/16 10:02:15;;;;;;;1.40;1.00;;;8.60;92.90;;;;;;4703936;30;20287;-76
2023/11/16 10:04:43;;;;;;;1.38;0.80;;;8.60;92.90;;;;;;4732974;30;20148;-76
2023/11/16 10:07:15;;;;;;;1.95;1.15;;;8.60;92.90;;;;;;4718320;30;20045;-77
2023/11/16 10:09:43;;;;;;;2.38;0.90;;;8.60;92.90;;;;;;4732768;30;20122;-77
2023/11/16 10:12:09;;;;;;;2.00;0.95;;;8.70;92.90;;;;;;4718316;30;20049;-77
2023/11/16 10:14:41;;;;;;;1.08;0.90;;;8.70;92.90;;;;;;4718352;30;20374;-77
2023/11/16 10:17:07;;;;;;;1.73;0.90;;;8.80;92.90;;;;;;4718402;30;20060;-77
2023/11/16 10:19:33;;;;;;;2.58;1.30;;;8.80;92.90;;;;;;4703870;30;20193;-77
2023/11/16 10:21:59;;;;;;;1.92;1.00;;;8.80;92.80;;;;;;4745199;30;20134;-77
2023/11/16 10:24:25;;;;;;;1.35;1.08;;;8.90;92.90;;;;;;4787931;30;20457;-77
2023/11/16 10:26:54;;;;;;;1.85;1.30;;;8.80;92.90;;;;;;4788391;30;20122;-77
2023/11/16 10:29:21;;;;;;;1.35;1.00;;;8.80;92.90;;;;;;4757090;30;20048;-77
2023/11/16 10:31:47;;;;;;;1.40;1.02;;;8.90;92.90;;;;;;4788038;30;20131;-77
2023/11/16 10:34:15;;;;;;;2.40;1.20;;;8.80;92.90;;;;;;4788328;30;20546;-77
2023/11/16 10:36:44;;;;;;;2.60;1.30;;;8.90;92.90;;;;;;4788092;30;20047;-77
2023/11/16 10:39:12;;;;;;;2.15;1.45;;;8.90;92.90;;;;;;4788430;30;20047;-77
2023/11/16 10:41:39;;;;;;;1.98;1.33;;;8.90;92.90;;;;;;4771915;30;20036;-77
2023/11/16 10:44:06;;;;;;;2.40;1.27;;;8.90;92.90;;;;;;4772036;30;20047;-77
2023/11/16 10:46:33;;;;;;;2.25;1.30;;;8.90;92.90;;;;;;4788392;30;20039;-77
2023/11/16 10:48:58;;;;;;;3.33;1.65;;;8.90;92.90;;;;;;4756840;30;20443;-77
2023/11/16 10:51:25;;;;;;;2.75;1.67;;;8.90;92.90;;;;;;4787782;30;20126;-77
2023/11/16 10:53:54;;;;;;;2.88;1.70;;;8.80;92.90;;;;;;4788293;30;20099;-77
2023/11/16 10:56:21;;;;;;;2.38;1.50;;;8.80;93.00;;;;;;4771839;30;20054;-77
2023/11/16 10:58:49;;;;;;;2.58;1.70;;;8.90;93.00;;;;;;4771852;30;20079;-77
2023/11/16 11:01:17;;;;;;;2.63;1.60;;;8.80;93.00;;;;;;4787650;30;20054;-77
2023/11/16 11:03:45;;;;;;;2.90;1.73;;;8.80;93.00;;;;;;4771576;30;20046;-77
2023/11/16 11:06:22;;;;;;;2.72;1.45;;;8.80;93.30;;;;;;4771297;30;20039;-78
2023/11/16 11:08:48;;;;;;;3.30;1.58;;;8.80;93.10;;;;;;4787755;30;20044;-77
2023/11/16 11:11:24;;;;;;;2.35;1.45;;;8.80;93.10;;;;;;4787907;30;20125;-77
2023/11/16 11:13:54;;;;;;;4.13;2.05;;;8.80;93.00;;;;;;4771387;30;20047;-78
2023/11/16 11:16:20;;;;;;;2.78;1.60;;;8.80;93.10;;;;;;4771316;30;20054;-77
2023/11/16 11:18:48;;;;;;;1.92;1.25;;;8.80;93.10;;;;;;4771861;30;20054;-77
2023/11/16 11:21:16;;;;;;;3.17;1.67;;;8.80;93.10;;;;;;4787509;30;20043;-77
2023/11/16 11:23:43;;;;;;;2.70;1.45;;;8.80;93.10;;;;;;4771435;30;20043;-78
2023/11/16 11:26:13;;;;;;;2.58;1.55;;;8.70;93.00;;;;;;4771247;30;20035;-77
2023/11/16 11:28:40;;;;;;;1.80;1.17;;;8.70;93.10;;;;;;4787576;30;20043;-78
2023/11/16 11:31:10;;;;;;;2.08;1.30;;;8.70;93.10;;;;;;4771148;30;20403;-77
2023/11/16 11:33:39;;;;;;;2.17;1.50;;;8.70;93.10;;;;;;4787310;30;20129;-77
2023/11/16 11:36:09;;;;;;;2.38;1.55;;;8.70;93.10;;;;;;4787759;30;20058;-77
2023/11/16 11:38:38;;;;;;;1.88;1.10;;;8.80;93.10;;;;;;4787357;30;21378;-76
2023/11/16 11:41:07;;;;;;;3.28;1.38;;;8.70;93.10;;;;;;4787318;30;20115;-77
2023/11/16 11:43:36;;;;;;;1.65;1.05;;;8.80;93.10;;;;;;4770804;30;20394;-77
2023/11/16 11:46:02;;;;;;;2.58;1.40;;;8.80;93.10;;;;;;4786911;30;20046;-77
2023/11/16 11:48:29;;;;;;;2.95;1.15;;;8.90;93.10;;;;;;4787205;30;20118;-78
2023/11/16 11:50:57;;;;;;;2.60;1.40;;;8.80;93.10;;;;;;4786760;30;20126;-77
2023/11/16 11:53:29;;;;;;;2.30;1.15;;;8.80;93.00;;;;;;4786774;30;20055;-78
2023/11/16 11:55:57;;;;;;;2.50;1.13;;;8.80;93.00;;;;;;4771520;30;20559;-77
2023/11/16 11:58:22;;;;;;;1.38;1.00;;;8.80;93.00;;;;;;4786836;30;20469;-77
2023/11/16 12:00:50;;;;;;;2.15;1.20;;;8.80;93.00;;;;;;4770015;30;20042;-77
2023/11/16 12:03:17;;;;;;;2.13;1.00;;;8.80;93.00;;;;;;4787019;30;20047;-77
2023/11/16 12:05:45;;;;;;;1.92;0.80;;;8.90;93.00;;;;;;4755915;30;20043;-77
2023/11/16 12:08:10;;;;;;;1.33;0.85;;;8.90;93.00;;;;;;4770571;30;20482;-77
2023/11/16 12:10:37;;;;;;;1.35;0.95;;;8.80;93.00;;;;;;4755553;30;20050;-77
2023/11/16 12:13:07;;;;;;;1.90;1.10;;;8.80;93.00;;;;;;4770551;30;20861;-77
2023/11/16 12:15:34;;;;;;;1.73;1.13;;;8.80;93.00;;;;;;4770811;30;20047;-77
2023/11/16 12:18:06;;;;;;;1.25;1.00;;;8.80;93.10;;;;;;4770308;30;20051;-77
2023/11/16 12:20:34;;;;;;;1.77;1.00;;;8.80;93.10;;;;;;4756065;30;20449;-78
2023/11/16 12:23:02;;;;;;;1.70;1.00;;;8.80;93.10;;;;;;4787007;30;20042;-77
2023/11/16 12:25:29;;;;;;;2.85;1.20;;;8.70;93.10;;;;;;4786437;30;20160;-77
2023/11/16 12:27:58;;;;;;;1.85;1.20;;;8.70;93.10;;;;;;4786565;30;20043;-78
2023/11/16 12:30:24;;;;;;;1.70;1.00;;;8.70;93.10;;;;;;4770464;30;20044;-77
2023/11/16 12:32:50;;;;;;;3.70;1.50;;;8.80;93.10;;;;;;4770265;30;20051;-78
2023/11/16 12:35:15;;;;;;;2.58;1.40;;;8.80;93.10;;;;;;4755368;30;20036;-78
2023/11/16 12:37:42;;;;;;;2.63;1.50;;;8.80;93.10;;;;;;4786324;30;20082;-78
2023/11/16 12:40:17;;;;;;;2.70;1.23;;;8.80;93.10;;;;;;4771114;30;20199;-77
2023/11/16 12:42:43;;;;;;;2.13;1.20;;;8.80;93.10;;;;;;4770818;30;20394;-77
2023/11/16 12:45:10;;;;;;;4.72;1.52;;;8.80;93.10;;;;;;4770410;30;20036;-77
2023/11/16 12:47:38;;;;;;;2.67;1.40;;;8.80;93.00;;;;;;4770476;30;20043;-77
2023/11/16 12:50:06;;;;;;;2.38;1.27;;;8.70;93.00;;;;;;4786448;30;20031;-78
2023/11/16 12:52:34;;;;;;;3.17;1.45;;;8.80;93.10;;;;;;4770333;30;20040;-78
2023/11/16 12:54:59;;;;;;;2.03;1.27;;;8.70;93.10;;;;;;4769981;30;20106;-77
2023/11/16 12:57:25;;;;;;;2.83;1.48;;;8.70;93.10;;;;;;4770072;30;20122;-77
2023/11/16 12:59:53;;;;;;;3.55;1.45;;;8.70;93.10;;;;;;4770189;30;20104;-77
2023/11/16 13:02:18;;;;;;;2.67;1.60;;;8.70;93.10;;;;;;4770991;30;20466;-78